Time,TemperatureF,DewpointF,PressureIn,WindDirection,WindDirectionDegrees,WindSpeedMPH,WindSpeedGustMPH,Humidity,HourlyPrecipIn,Conditions,Clouds,dailyrainin,SolarRadiationWatts/m^2,SoftwareType,DateUTC
2013-07-15 00:11:00,63.0,30.0,-100.00,WNW,298,10.0,22.0,29,0.00,,,0.00,0.000000,,2013-07-15 07:11:00,
2013-07-15 00:21:00,63.0,30.0,-100.00,WNW,298,10.0,22.0,29,0.00,,,0.00,0.000000,,2013-07-15 07:21:00,
2013-07-15 00:32:00,63.0,30.0,-100.00,WNW,298,10.0,22.0,29,0.00,,,0.00,0.000000,,2013-07-15 07:32:00,
2013-07-15 00:43:00,63.0,30.0,-100.00,WNW,298,10.0,22.0,29,0.00,,,0.00,0.000000,,2013-07-15 07:43:00,
2013-07-15 01:22:00,65.0,34.0,-100.00,NW,308,15.0,23.0,31,0.00,,,0.00,0.000000,,2013-07-15 08:22:00,
2013-07-15 01:32:00,65.0,34.0,-100.00,NW,308,15.0,23.0,31,0.00,,,0.00,0.000000,,2013-07-15 08:32:00,
2013-07-15 01:43:00,65.0,34.0,-100.00,NW,308,15.0,23.0,31,0.00,,,0.00,0.000000,,2013-07-15 08:43:00,
2013-07-15 02:11:00,60.0,34.0,-100.00,North,4,8.0,22.0,38,0.00,,,0.00,0.000000,,2013-07-15 09:11:00,
2013-07-15 02:22:00,60.0,34.0,-100.00,North,4,8.0,22.0,38,0.00,,,0.00,0.000000,,2013-07-15 09:22:00,
2013-07-15 02:32:00,60.0,34.0,-100.00,North,4,8.0,22.0,38,0.00,,,0.00,0.000000,,2013-07-15 09:32:00,
2013-07-15 02:42:00,60.0,34.0,-100.00,North,4,8.0,22.0,38,0.00,,,0.00,0.000000,,2013-07-15 09:42:00,
2013-07-15 03:11:00,57.0,32.0,-100.00,NNW,347,5.0,14.0,39,0.00,,,0.00,0.000000,,2013-07-15 10:11:00,
2013-07-15 03:21:00,57.0,32.0,-100.00,NNW,347,5.0,14.0,39,0.00,,,0.00,0.000000,,2013-07-15 10:21:00,
2013-07-15 03:32:00,57.0,32.0,-100.00,NNW,347,5.0,14.0,39,0.00,,,0.00,0.000000,,2013-07-15 10:32:00,
2013-07-15 03:42:00,57.0,32.0,-100.00,NNW,347,5.0,14.0,39,0.00,,,0.00,0.000000,,2013-07-15 10:42:00,
2013-07-15 04:11:00,59.0,37.0,-100.00,NNE,13,12.0,21.0,43,0.00,,,0.00,0.000000,,2013-07-15 11:11:00,
2013-07-15 04:22:00,59.0,37.0,-100.00,NNE,13,12.0,21.0,43,0.00,,,0.00,0.000000,,2013-07-15 11:22:00,
2013-07-15 04:32:00,59.0,37.0,-100.00,NNE,13,12.0,21.0,43,0.00,,,0.00,0.000000,,2013-07-15 11:32:00,
2013-07-15 04:42:00,59.0,37.0,-100.00,NNE,13,12.0,21.0,43,0.00,,,0.00,0.000000,,2013-07-15 11:42:00,
2013-07-15 05:11:00,55.0,35.0,-100.00,NNE,22,12.0,24.0,47,0.00,,,0.00,0.000000,,2013-07-15 12:11:00,
2013-07-15 05:22:00,55.0,35.0,-100.00,NNE,22,12.0,24.0,47,0.00,,,0.00,0.000000,,2013-07-15 12:22:00,
2013-07-15 05:32:00,55.0,35.0,-100.00,NNE,22,12.0,24.0,47,0.00,,,0.00,0.000000,,2013-07-15 12:32:00,
2013-07-15 05:42:00,55.0,35.0,-100.00,NNE,22,12.0,24.0,47,0.00,,,0.00,0.000000,,2013-07-15 12:42:00,
2013-07-15 06:11:00,56.0,37.0,-100.00,NNE,31,14.0,21.0,49,0.00,,,0.00,0.000000,,2013-07-15 13:11:00,
2013-07-15 06:22:00,56.0,37.0,-100.00,NNE,31,14.0,21.0,49,0.00,,,0.00,0.000000,,2013-07-15 13:22:00,
2013-07-15 06:32:00,56.0,37.0,-100.00,NNE,31,14.0,21.0,49,0.00,,,0.00,0.000000,,2013-07-15 13:32:00,
2013-07-15 06:43:00,56.0,37.0,-100.00,NNE,31,14.0,21.0,49,0.00,,,0.00,0.000000,,2013-07-15 13:43:00,
2013-07-15 07:11:00,57.0,36.0,-100.00,NNE,33,20.0,28.0,46,0.00,,,0.00,6.000000,,2013-07-15 14:11:00,
2013-07-15 07:22:00,57.0,36.0,-100.00,NNE,33,20.0,28.0,46,0.00,,,0.00,6.000000,,2013-07-15 14:22:00,
2013-07-15 07:33:00,57.0,36.0,-100.00,NNE,33,20.0,28.0,46,0.00,,,0.00,6.000000,,2013-07-15 14:33:00,
2013-07-15 07:42:00,57.0,36.0,-100.00,NNE,33,20.0,28.0,46,0.00,,,0.00,6.000000,,2013-07-15 14:42:00,
2013-07-15 08:34:00,60.0,36.0,-100.00,NNE,31,20.0,31.0,41,0.00,,,0.00,144.000000,,2013-07-15 15:34:00,
2013-07-15 08:44:00,60.0,36.0,-100.00,NNE,31,20.0,31.0,41,0.00,,,0.00,144.000000,,2013-07-15 15:44:00,
2013-07-15 09:14:00,65.0,38.0,-100.00,NE,37,17.0,27.0,37,0.00,,,0.00,349.000000,,2013-07-15 16:14:00,
2013-07-15 09:32:00,65.0,38.0,-100.00,NE,37,17.0,27.0,37,0.00,,,0.00,349.000000,,2013-07-15 16:32:00,
2013-07-15 09:44:00,65.0,38.0,-100.00,NE,37,17.0,27.0,37,0.00,,,0.00,349.000000,,2013-07-15 16:44:00,
2013-07-15 10:13:00,66.0,37.0,-100.00,NNE,27,16.0,25.0,34,0.00,,,0.00,544.000000,,2013-07-15 17:13:00,
2013-07-15 10:23:00,66.0,37.0,-100.00,NNE,27,16.0,25.0,34,0.00,,,0.00,544.000000,,2013-07-15 17:23:00,
2013-07-15 10:35:00,66.0,37.0,-100.00,NNE,27,16.0,25.0,34,0.00,,,0.00,544.000000,,2013-07-15 17:35:00,
2013-07-15 10:44:00,66.0,37.0,-100.00,NNE,27,16.0,25.0,34,0.00,,,0.00,544.000000,,2013-07-15 17:44:00,
2013-07-15 11:24:00,70.0,35.0,-100.00,NNE,17,12.0,26.0,28,0.00,,,0.00,703.000000,,2013-07-15 18:24:00,
2013-07-15 11:45:00,70.0,35.0,-100.00,NNE,17,12.0,26.0,28,0.00,,,0.00,703.000000,,2013-07-15 18:45:00,
2013-07-15 12:11:00,72.0,35.0,-100.00,NE,37,12.0,24.0,26,0.00,,,0.00,812.000000,,2013-07-15 19:11:00,
2013-07-15 12:24:00,72.0,35.0,-100.00,NE,37,12.0,24.0,26,0.00,,,0.00,812.000000,,2013-07-15 19:24:00,
2013-07-15 12:34:00,72.0,35.0,-100.00,NE,37,12.0,24.0,26,0.00,,,0.00,812.000000,,2013-07-15 19:34:00,
2013-07-15 12:44:00,72.0,35.0,-100.00,NE,37,12.0,24.0,26,0.00,,,0.00,812.000000,,2013-07-15 19:44:00,
2013-07-15 13:24:00,76.0,37.0,-100.00,NNE,32,10.0,22.0,24,0.00,,,0.00,867.000000,,2013-07-15 20:24:00,
2013-07-15 13:43:00,76.0,37.0,-100.00,NNE,32,10.0,22.0,24,0.00,,,0.00,867.000000,,2013-07-15 20:43:00,
2013-07-15 14:12:00,77.0,35.0,-100.00,NNE,30,12.0,21.0,22,0.00,,,0.00,867.000000,,2013-07-15 21:12:00,
2013-07-15 14:23:00,77.0,35.0,-100.00,NNE,30,12.0,21.0,22,0.00,,,0.00,867.000000,,2013-07-15 21:23:00,
2013-07-15 14:34:00,77.0,35.0,-100.00,NNE,30,12.0,21.0,22,0.00,,,0.00,867.000000,,2013-07-15 21:34:00,
2013-07-15 14:44:00,77.0,35.0,-100.00,NNE,30,12.0,21.0,22,0.00,,,0.00,867.000000,,2013-07-15 21:44:00,
2013-07-15 15:15:00,79.0,34.0,-100.00,NNE,18,12.0,24.0,20,0.00,,,0.00,821.000000,,2013-07-15 22:15:00,
2013-07-15 15:22:00,79.0,34.0,-100.00,NNE,18,12.0,24.0,20,0.00,,,0.00,821.000000,,2013-07-15 22:22:00,
2013-07-15 15:34:00,79.0,34.0,-100.00,NNE,18,12.0,24.0,20,0.00,,,0.00,821.000000,,2013-07-15 22:34:00,
2013-07-15 15:43:00,79.0,34.0,-100.00,NNE,18,12.0,24.0,20,0.00,,,0.00,821.000000,,2013-07-15 22:43:00,
2013-07-15 16:13:00,79.0,33.0,-100.00,NE,43,13.0,22.0,19,0.00,,,0.00,717.000000,,2013-07-15 23:13:00,
2013-07-15 16:24:00,79.0,33.0,-100.00,NE,43,13.0,22.0,19,0.00,,,0.00,717.000000,,2013-07-15 23:24:00,
2013-07-15 16:34:00,79.0,33.0,-100.00,NE,43,13.0,22.0,19,0.00,,,0.00,717.000000,,2013-07-15 23:34:00,
2013-07-15 16:43:00,79.0,33.0,-100.00,NE,43,13.0,22.0,19,0.00,,,0.00,717.000000,,2013-07-15 23:43:00,
2013-07-15 17:24:00,79.0,33.0,-100.00,NNE,27,12.0,23.0,19,0.00,,,0.00,547.000000,,2013-07-16 00:24:00,
2013-07-15 17:33:00,79.0,33.0,-100.00,NNE,27,12.0,23.0,19,0.00,,,0.00,547.000000,,2013-07-16 00:33:00,
2013-07-15 17:43:00,79.0,33.0,-100.00,NNE,27,12.0,23.0,19,0.00,,,0.00,547.000000,,2013-07-16 00:43:00,
2013-07-15 18:33:00,79.0,34.0,-100.00,NE,36,13.0,21.0,20,0.00,,,0.00,337.000000,,2013-07-16 01:33:00,
2013-07-15 18:44:00,79.0,34.0,-100.00,NE,36,13.0,21.0,20,0.00,,,0.00,337.000000,,2013-07-16 01:44:00,
2013-07-15 19:11:00,79.0,37.0,-100.00,NE,34,16.0,25.0,22,0.00,,,0.00,86.000000,,2013-07-16 02:11:00,
2013-07-15 19:24:00,79.0,37.0,-100.00,NE,34,16.0,25.0,22,0.00,,,0.00,86.000000,,2013-07-16 02:24:00,
2013-07-15 19:35:00,79.0,37.0,-100.00,NE,34,16.0,25.0,22,0.00,,,0.00,86.000000,,2013-07-16 02:35:00,
2013-07-15 20:13:00,76.0,37.0,-100.00,NNE,31,17.0,23.0,24,0.00,,,0.00,0.000000,,2013-07-16 03:13:00,
2013-07-15 20:24:00,76.0,37.0,-100.00,NNE,31,17.0,23.0,24,0.00,,,0.00,0.000000,,2013-07-16 03:24:00,
2013-07-15 20:34:00,76.0,37.0,-100.00,NNE,31,17.0,23.0,24,0.00,,,0.00,0.000000,,2013-07-16 03:34:00,
2013-07-15 20:44:00,76.0,37.0,-100.00,NNE,31,17.0,23.0,24,0.00,,,0.00,0.000000,,2013-07-16 03:44:00,